Time;durP1;ratioP1;P1;durP2;ratioP2;P2;SDS_P1;SDS_P2;PMS_P1;PMS_P2;Temp;Humidity;BMP_temperature;BMP_pressure;BME280_temperature;BME280_humidity;BME280_pressure;Samples;Min_cycle;Max_cycle;Signal;HPM_P1;HPM_P2
2023/09/03 00:02:06;;;;;;;19.47;10.57;;;15.60;99.90;;;;;;4833048;29;20199;-83
2023/09/03 00:05:13;;;;;;;19.57;10.97;;;15.50;99.90;;;;;;4853026;29;20315;-83
2023/09/03 00:08:12;;;;;;;23.43;11.57;;;15.50;99.90;;;;;;4856928;29;20212;-84
2023/09/03 00:11:21;;;;;;;23.47;12.70;;;15.50;99.90;;;;;;4871391;29;20209;-83
2023/09/03 00:14:01;;;;;;;22.47;12.30;;;15.50;99.90;;;;;;4857041;29;20567;-81
2023/09/03 00:16:45;;;;;;;23.53;12.13;;;15.50;99.90;;;;;;4943386;28;20300;-84
2023/09/03 00:19:37;;;;;;;19.83;11.67;;;15.50;99.90;;;;;;4918917;29;20288;-83
2023/09/03 00:22:41;;;;;;;17.37;10.57;;;15.50;99.90;;;;;;4906651;29;20209;-83
2023/09/03 00:25:21;;;;;;;18.77;10.67;;;15.50;99.90;;;;;;4934828;29;20281;-83
2023/09/03 00:28:49;;;;;;;20.10;10.73;;;15.40;99.90;;;;;;4934343;29;20199;-83
2023/09/03 00:31:54;;;;;;;19.87;10.70;;;15.40;99.90;;;;;;4949860;28;20207;-83
2023/09/03 00:34:38;;;;;;;19.63;10.80;;;15.40;99.90;;;;;;4941710;28;20715;-83
2023/09/03 00:37:21;;;;;;;17.23;10.20;;;15.40;99.90;;;;;;4957522;28;20217;-81
2023/09/03 00:40:15;;;;;;;18.87;10.77;;;15.30;99.90;;;;;;5022820;28;20662;-81
2023/09/03 00:42:57;;;;;;;18.20;10.80;;;15.30;99.90;;;;;;5021756;28;20191;-81
2023/09/03 00:45:42;;;;;;;20.40;10.30;;;15.20;99.90;;;;;;5037811;28;20194;-83
2023/09/03 00:48:28;;;;;;;19.33;11.10;;;15.30;99.90;;;;;;5035081;28;20198;-83
2023/09/03 00:51:13;;;;;;;16.80;10.33;;;15.30;99.90;;;;;;5021364;28;20234;-82
2023/09/03 00:54:28;;;;;;;17.40;9.90;;;15.30;99.90;;;;;;5022957;28;20666;-83
2023/09/03 00:57:19;;;;;;;15.90;10.10;;;15.30;99.90;;;;;;5054335;28;20187;-83
2023/09/03 01:00:30;;;;;;;16.40;10.63;;;15.20;99.90;;;;;;5036094;28;20214;-82
2023/09/03 01:03:21;;;;;;;14.73;9.50;;;15.20;99.90;;;;;;5020462;28;20199;-83
2023/09/03 01:18:03;;;;;;;18.20;9.53;;;15.10;99.90;;;;;;5261770;22;20235;-85
2023/09/03 01:25:57;;;;;;;;;;;;;;;;;;;;;
2023/09/03 01:29:22;;;;;;;16.93;10.00;;;15.10;99.90;;;;;;4840462;29;20221;-84
2023/09/03 01:33:15;;;;;;;;;;;;;;;;;;;;;
2023/09/03 01:36:59;;;;;;;17.83;10.87;;;15.20;99.90;;;;;;4748923;30;20673;-86
2023/09/03 01:41:57;;;;;;;;;;;;;;;;;;;;;
2023/09/03 01:44:45;;;;;;;15.47;10.60;;;15.20;99.90;;;;;;4743192;30;20198;-85
2023/09/03 01:48:18;;;;;;;17.63;11.00;;;15.20;99.90;;;;;;4779421;30;20203;-86
2023/09/03 01:51:41;;;;;;;;;;;;;;;;;;;;;
2023/09/03 01:55:22;;;;;;;16.90;10.77;;;15.30;99.90;;;;;;5046003;28;20206;-84
2023/09/03 01:58:13;;;;;;;16.57;10.43;;;15.30;99.90;;;;;;4951963;28;20205;-84
2023/09/03 02:01:40;;;;;;;;;;;;;;;;;;;;;
2023/09/03 02:05:04;;;;;;;16.90;10.60;;;15.20;99.90;;;;;;4911106;29;20199;-83
2023/09/03 02:08:43;;;;;;;17.77;11.00;;;15.20;99.90;;;;;;4889293;29;20208;-84
2023/09/03 02:12:41;;;;;;;18.93;10.40;;;15.10;99.90;;;;;;4823122;29;20210;-83
2023/09/03 02:15:17;;;;;;;15.63;10.47;;;15.10;99.90;;;;;;4824343;29;20224;-82
2023/09/03 02:17:59;;;;;;;17.07;10.87;;;15.10;99.90;;;;;;4853594;29;20205;-83
2023/09/03 02:20:37;;;;;;;16.03;11.20;;;15.10;99.90;;;;;;4839299;29;20253;-82
2023/09/03 02:23:14;;;;;;;17.43;10.77;;;15.00;99.90;;;;;;4839410;29;20209;-83
2023/09/03 02:26:04;;;;;;;17.10;10.90;;;15.00;99.90;;;;;;4825332;29;20670;-83
2023/09/03 02:28:42;;;;;;;15.83;10.97;;;15.00;99.90;;;;;;4823138;29;20218;-84
2023/09/03 02:31:16;;;;;;;19.20;11.77;;;15.00;99.90;;;;;;4823712;29;20773;-83
2023/09/03 02:34:01;;;;;;;16.80;11.57;;;15.00;99.90;;;;;;4826098;29;20742;-83
2023/09/03 02:36:35;;;;;;;17.17;10.93;;;15.10;99.90;;;;;;4893702;29;20227;-84
2023/09/03 02:39:06;;;;;;;16.57;11.27;;;14.90;99.90;;;;;;4927442;29;20250;-83
2023/09/03 02:41:39;;;;;;;15.70;10.90;;;14.90;99.90;;;;;;4955467;28;20495;-83
2023/09/03 02:44:24;;;;;;;15.90;10.63;;;14.90;99.90;;;;;;4986246;28;20197;-83
2023/09/03 02:47:09;;;;;;;16.03;10.80;;;14.70;99.90;;;;;;4969229;28;20204;-83
2023/09/03 02:49:46;;;;;;;17.80;10.93;;;14.80;99.90;;;;;;4991119;28;20242;-83
2023/09/03 02:52:20;;;;;;;18.97;11.27;;;14.80;99.90;;;;;;5035366;28;20206;-83
2023/09/03 02:54:56;;;;;;;19.43;10.93;;;14.80;99.90;;;;;;5045824;28;20207;-83
2023/09/03 02:57:32;;;;;;;18.97;11.27;;;14.60;99.90;;;;;;5029998;28;20209;-83
2023/09/03 03:00:10;;;;;;;18.23;10.83;;;14.70;99.90;;;;;;5046567;28;20240;-83
2023/09/03 03:02:44;;;;;;;16.93;11.50;;;14.60;99.90;;;;;;5016812;28;20207;-83
2023/09/03 03:05:33;;;;;;;14.80;10.57;;;14.60;99.90;;;;;;5018003;28;20239;-83
2023/09/03 03:08:04;;;;;;;15.77;10.70;;;14.60;99.90;;;;;;5033895;28;20195;-83
2023/09/03 03:10:32;;;;;;;16.60;10.90;;;14.50;99.90;;;;;;5016402;28;20226;-83
2023/09/03 03:13:01;;;;;;;17.57;10.73;;;14.40;99.90;;;;;;5016821;28;20261;-83
2023/09/03 03:15:33;;;;;;;15.90;11.10;;;14.40;99.90;;;;;;5016599;28;20196;-84
2023/09/03 03:18:11;;;;;;;15.83;10.30;;;14.30;99.90;;;;;;5032580;28;20202;-83
2023/09/03 03:20:44;;;;;;;17.20;11.93;;;14.30;99.90;;;;;;5015948;28;20219;-84
2023/09/03 03:23:26;;;;;;;16.23;11.23;;;14.30;99.90;;;;;;5033067;28;20686;-83
2023/09/03 03:28:58;;;;;;;17.10;11.60;;;14.20;99.90;;;;;;5031610;28;20199;-83
2023/09/03 03:31:34;;;;;;;18.17;11.70;;;14.10;99.90;;;;;;5034071;28;20295;-83
2023/09/03 03:34:14;;;;;;;19.50;12.27;;;14.20;99.90;;;;;;5015678;28;20281;-84
2023/09/03 03:36:54;;;;;;;18.70;12.10;;;14.20;99.90;;;;;;5032390;28;20218;-82
2023/09/03 03:39:24;;;;;;;19.37;11.97;;;14.20;99.90;;;;;;5031361;28;20206;-83
2023/09/03 03:42:08;;;;;;;20.27;12.00;;;14.10;99.90;;;;;;5031779;28;20295;-83
2023/09/03 03:44:47;;;;;;;17.70;11.53;;;14.20;99.90;;;;;;5017015;28;20261;-81
2023/09/03 03:47:16;;;;;;;19.90;12.23;;;14.10;99.90;;;;;;5032394;28;20318;-82
2023/09/03 03:49:51;;;;;;;22.07;12.93;;;14.10;99.90;;;;;;5031498;28;20245;-83
2023/09/03 03:52:30;;;;;;;18.93;12.20;;;14.10;99.90;;;;;;5032865;28;20244;-84
2023/09/03 03:55:18;;;;;;;25.37;13.27;;;14.10;99.90;;;;;;5031045;28;20289;-83
2023/09/03 03:57:49;;;;;;;20.57;12.77;;;14.10;99.90;;;;;;5015571;28;20204;-83
2023/09/03 04:00:20;;;;;;;22.77;12.50;;;14.10;99.90;;;;;;5033582;28;20183;-82
2023/09/03 04:02:51;;;;;;;22.80;12.70;;;14.10;99.90;;;;;;5016266;28;20256;-82
2023/09/03 04:05:20;;;;;;;21.60;13.33;;;14.00;99.90;;;;;;5012095;28;20220;-83
2023/09/03 04:07:55;;;;;;;23.03;12.73;;;13.90;99.90;;;;;;5012081;28;20191;-84
2023/09/03 04:10:36;;;;;;;24.10;12.17;;;14.00;99.90;;;;;;5012019;28;20208;-84
2023/09/03 04:13:13;;;;;;;23.30;12.90;;;14.00;99.90;;;;;;5011697;28;20191;-83
2023/09/03 04:15:51;;;;;;;19.17;12.93;;;13.90;99.90;;;;;;4996395;28;20202;-84
2023/09/03 04:18:26;;;;;;;23.97;13.37;;;14.10;99.90;;;;;;5011255;28;20280;-83
2023/09/03 04:20:56;;;;;;;22.80;13.10;;;14.10;99.90;;;;;;5012194;28;20212;-82
2023/09/03 04:23:36;;;;;;;20.03;12.20;;;14.10;99.90;;;;;;4996975;28;20215;-84
2023/09/03 04:26:16;;;;;;;22.27;12.07;;;14.10;99.90;;;;;;5011613;28;20207;-84
2023/09/03 04:29:13;;;;;;;21.33;13.00;;;14.00;99.90;;;;;;5011284;28;20254;-83
2023/09/03 04:32:35;;;;;;;44.77;14.90;;;14.10;99.90;;;;;;5012790;28;20193;-84
2023/09/03 04:35:39;;;;;;;17.23;11.90;;;14.10;99.90;;;;;;5010273;28;20266;-84
2023/09/03 04:38:47;;;;;;;22.03;12.77;;;14.00;99.90;;;;;;5009779;28;20206;-84
2023/09/03 04:41:52;;;;;;;18.50;12.00;;;14.00;99.90;;;;;;5007745;28;20207;-85
2023/09/03 04:44:47;;;;;;;17.33;12.10;;;14.10;99.90;;;;;;4918060;29;20207;-84
2023/09/03 04:51:15;;;;;;;20.07;12.93;;;14.20;99.90;;;;;;4929532;29;20713;-84
2023/09/03 04:54:44;;;;;;;23.53;12.43;;;14.10;99.90;;;;;;4921369;29;20212;-84
2023/09/03 04:58:15;;;;;;;19.60;12.20;;;14.20;99.90;;;;;;4934071;29;20707;-84
2023/09/03 05:01:47;;;;;;;;;;;;;;;;;;;;;
2023/09/03 05:05:01;;;;;;;21.00;11.90;;;14.50;99.90;;;;;;4949875;29;20669;-84
2023/09/03 05:13:34;;;;;;;;;;;;;;;;;;;;;
2023/09/03 05:17:02;;;;;;;18.27;11.70;;;14.80;99.90;;;;;;4760152;29;20262;-84
2023/09/03 05:19:57;;;;;;;16.83;11.90;;;15.10;99.90;;;;;;4780517;29;20195;-84
2023/09/03 05:22:47;;;;;;;21.13;11.87;;;15.20;99.90;;;;;;4818279;29;20221;-83
2023/09/03 05:25:31;;;;;;;17.70;11.57;;;15.40;99.90;;;;;;4818088;29;20201;-83
2023/09/03 05:28:22;;;;;;;17.53;12.20;;;15.30;99.90;;;;;;4801318;29;20210;-84
2023/09/03 05:30:51;;;;;;;17.57;12.10;;;15.30;99.90;;;;;;4818957;29;20231;-83
2023/09/03 05:33:27;;;;;;;19.57;12.43;;;15.30;99.90;;;;;;4805070;29;20275;-83
2023/09/03 05:36:10;;;;;;;20.00;12.87;;;15.30;99.90;;;;;;4820301;29;20245;-83
2023/09/03 05:39:04;;;;;;;17.93;11.67;;;15.30;99.90;;;;;;4817427;29;20226;-83
2023/09/03 05:41:50;;;;;;;17.27;11.00;;;15.30;99.90;;;;;;4820264;29;20306;-84
2023/09/03 05:44:34;;;;;;;21.67;11.60;;;15.30;99.90;;;;;;4818543;29;20224;-84
2023/09/03 05:47:24;;;;;;;18.20;11.13;;;15.40;99.90;;;;;;4834566;29;20692;-84
2023/09/03 05:50:17;;;;;;;22.73;11.60;;;15.50;99.90;;;;;;4955233;28;20496;-83
2023/09/03 05:52:50;;;;;;;17.30;10.40;;;15.70;99.90;;;;;;4953985;28;20256;-84
2023/09/03 05:59:07;;;;;;;18.00;11.00;;;15.90;99.90;;;;;;4948367;28;20272;-85
2023/09/03 06:02:16;;;;;;;17.10;10.10;;;16.00;99.90;;;;;;4890008;29;20209;-84
2023/09/03 06:05:39;;;;;;;14.90;9.60;;;16.10;99.90;;;;;;4929050;29;20213;-84
2023/09/03 06:08:51;;;;;;;20.27;10.90;;;16.10;99.90;;;;;;4842264;29;20634;-83
2023/09/03 06:11:29;;;;;;;21.27;10.93;;;16.30;99.90;;;;;;4856345;29;20212;-83
2023/09/03 06:14:30;;;;;;;18.07;10.30;;;16.40;99.90;;;;;;4843388;29;20206;-83
2023/09/03 06:17:20;;;;;;;15.60;10.57;;;16.40;99.90;;;;;;4854695;29;20213;-84
2023/09/03 06:20:03;;;;;;;17.47;10.43;;;16.50;99.90;;;;;;4856259;29;20307;-84
2023/09/03 06:22:55;;;;;;;15.87;10.40;;;16.50;99.90;;;;;;4842015;29;20216;-84
2023/09/03 06:25:31;;;;;;;17.13;10.47;;;16.70;99.90;;;;;;4840591;29;20213;-83
2023/09/03 06:28:22;;;;;;;21.53;10.47;;;16.80;99.90;;;;;;4855132;29;20382;-84
2023/09/03 06:31:02;;;;;;;15.63;11.10;;;17.00;99.90;;;;;;4856259;29;20439;-84
2023/09/03 06:33:37;;;;;;;16.07;10.47;;;17.10;99.90;;;;;;4856371;29;20304;-84
2023/09/03 06:36:08;;;;;;;17.63;11.43;;;17.30;99.90;;;;;;4857211;29;20226;-84
2023/09/03 06:38:50;;;;;;;18.13;10.67;;;17.50;99.90;;;;;;4869527;29;20202;-84
2023/09/03 06:41:26;;;;;;;17.93;10.70;;;17.60;99.90;;;;;;4937885;29;20284;-84
2023/09/03 06:43:58;;;;;;;18.03;11.87;;;17.80;99.90;;;;;;4938113;29;20694;-83
2023/09/03 06:46:34;;;;;;;19.07;12.07;;;17.90;99.90;;;;;;5002908;28;20652;-83
2023/09/03 06:49:15;;;;;;;16.10;11.50;;;17.90;99.90;;;;;;5013126;28;20200;-83
2023/09/03 06:51:59;;;;;;;20.67;13.63;;;18.10;99.90;;;;;;5012681;28;20327;-83
2023/09/03 06:54:42;;;;;;;18.97;11.97;;;18.10;99.90;;;;;;4998198;28;20656;-83
2023/09/03 06:57:24;;;;;;;16.83;11.37;;;18.20;99.90;;;;;;5012538;28;20667;-82
2023/09/03 07:00:13;;;;;;;15.70;10.20;;;18.30;99.90;;;;;;4997738;28;20254;-83
2023/09/03 07:03:02;;;;;;;15.60;9.60;;;18.30;99.90;;;;;;4996953;28;20311;-83
2023/09/03 07:05:46;;;;;;;13.30;8.10;;;18.40;99.90;;;;;;5013025;28;20216;-83
2023/09/03 07:08:33;;;;;;;12.40;8.10;;;18.40;99.90;;;;;;5013099;28;20196;-84
2023/09/03 07:11:15;;;;;;;12.03;7.90;;;18.50;99.90;;;;;;5012791;28;20223;-83
2023/09/03 07:13:45;;;;;;;12.33;8.47;;;18.50;99.90;;;;;;5012338;28;20564;-83
2023/09/03 07:16:20;;;;;;;12.40;8.13;;;18.50;99.90;;;;;;5013997;28;20366;-83
2023/09/03 07:18:55;;;;;;;13.47;8.57;;;18.70;99.90;;;;;;5012861;28;20565;-84
2023/09/03 07:21:27;;;;;;;12.67;8.90;;;18.70;99.90;;;;;;4996302;28;20234;-82
2023/09/03 07:23:56;;;;;;;12.87;8.20;;;18.70;99.90;;;;;;5014267;28;20223;-84
2023/09/03 07:26:26;;;;;;;14.90;7.40;;;18.80;99.90;;;;;;5013192;28;20196;-83
2023/09/03 07:29:02;;;;;;;12.83;7.60;;;18.90;99.90;;;;;;5013148;28;20222;-79
2023/09/03 07:31:40;;;;;;;9.17;6.57;;;19.10;99.90;;;;;;5012985;28;20302;-79
2023/09/03 07:34:18;;;;;;;8.03;5.47;;;19.20;99.90;;;;;;4996430;28;20663;-81
2023/09/03 07:37:48;;;;;;;8.20;5.27;;;19.30;99.90;;;;;;5011985;28;20216;-80
2023/09/03 07:40:30;;;;;;;9.20;5.37;;;19.40;99.90;;;;;;5016126;28;20222;-81
2023/09/03 07:43:15;;;;;;;8.03;5.10;;;19.40;99.90;;;;;;4921246;29;20203;-79
2023/09/03 07:45:48;;;;;;;8.53;5.27;;;19.50;99.90;;;;;;4918655;29;20770;-80
2023/09/03 07:48:27;;;;;;;6.93;4.83;;;19.70;99.90;;;;;;4917924;29;20658;-79
2023/09/03 07:51:13;;;;;;;7.27;4.70;;;19.90;99.90;;;;;;4915496;29;20238;-81
2023/09/03 07:53:52;;;;;;;8.00;4.40;;;20.00;99.90;;;;;;4918065;29;20284;-80
2023/09/03 07:56:33;;;;;;;8.60;4.27;;;20.10;99.90;;;;;;4919161;29;20203;-80
2023/09/03 07:59:03;;;;;;;5.70;3.97;;;20.10;99.90;;;;;;4933547;29;20282;-78
2023/09/03 08:01:40;;;;;;;7.33;3.93;;;20.00;99.90;;;;;;4916300;29;20234;-80
2023/09/03 08:04:11;;;;;;;5.07;3.70;;;20.10;99.90;;;;;;4917744;29;20206;-80
2023/09/03 08:06:43;;;;;;;11.77;4.67;;;20.20;99.90;;;;;;4917997;29;20242;-80
2023/09/03 08:09:14;;;;;;;8.63;3.93;;;20.40;99.90;;;;;;4917778;29;20190;-79
2023/09/03 08:11:44;;;;;;;6.07;3.50;;;20.60;99.90;;;;;;4917629;29;20237;-79
2023/09/03 08:14:13;;;;;;;5.93;3.40;;;20.90;99.90;;;;;;4917331;29;20202;-80
2023/09/03 08:16:56;;;;;;;6.00;3.70;;;21.10;99.90;;;;;;4917082;29;20239;-80
2023/09/03 08:19:34;;;;;;;4.87;3.23;;;21.50;99.90;;;;;;4917142;29;20199;-80
2023/09/03 08:22:08;;;;;;;7.60;3.30;;;22.00;99.90;;;;;;4916715;29;20231;-79
2023/09/03 08:24:45;;;;;;;4.37;3.00;;;22.30;99.90;;;;;;4917474;29;20198;-79
2023/09/03 08:27:14;;;;;;;5.27;3.13;;;22.50;99.90;;;;;;4969198;28;20270;-79
2023/09/03 08:29:50;;;;;;;4.50;3.10;;;22.90;99.90;;;;;;4996316;28;20200;-79
2023/09/03 08:32:37;;;;;;;5.43;3.10;;;23.20;99.90;;;;;;4996571;28;20319;-81
2023/09/03 08:35:11;;;;;;;4.00;3.00;;;23.40;99.90;;;;;;5012415;28;20667;-80
2023/09/03 08:37:44;;;;;;;4.47;3.03;;;23.40;99.90;;;;;;5011575;28;20199;-80
2023/09/03 08:40:50;;;;;;;3.70;3.00;;;23.40;99.90;;;;;;5011598;28;20423;-81
2023/09/03 08:43:33;;;;;;;4.47;2.73;;;23.50;99.90;;;;;;5012365;28;20247;-80
2023/09/03 08:46:19;;;;;;;4.33;3.13;;;23.70;99.90;;;;;;5010924;28;20196;-80
2023/09/03 08:49:20;;;;;;;4.60;3.40;;;23.70;99.90;;;;;;4995632;28;20427;-82
2023/09/03 08:51:53;;;;;;;3.35;2.65;;;23.90;99.90;;;;;;5011040;28;20244;-81
2023/09/03 08:55:01;;;;;;;3.72;3.00;;;24.40;99.90;;;;;;5006833;28;20291;-80
2023/09/03 08:57:36;;;;;;;4.85;3.00;;;24.60;99.90;;;;;;5012844;28;20184;-80
2023/09/03 09:00:43;;;;;;;5.00;3.42;;;25.10;99.90;;;;;;4992574;28;20212;-82
2023/09/03 09:03:44;;;;;;;5.18;3.80;;;25.50;99.90;;;;;;4994714;28;20207;-80
2023/09/03 09:06:46;;;;;;;;;;;;;;;;;;;;;
2023/09/03 09:18:20;;;;;;;5.47;3.85;;;25.20;99.90;;;;;;4913250;29;20234;-87
2023/09/03 09:21:15;;;;;;;6.03;3.90;;;25.10;99.90;;;;;;4904520;29;20219;-80
2023/09/03 09:24:11;;;;;;;5.00;3.45;;;25.10;99.90;;;;;;4913993;29;20203;-84
2023/09/03 09:27:32;;;;;;;5.28;3.70;;;25.30;99.90;;;;;;4883383;29;20233;-84
2023/09/03 09:30:25;;;;;;;5.13;3.28;;;25.60;99.90;;;;;;4895992;29;20200;-83
2023/09/03 09:33:17;;;;;;;4.40;3.53;;;26.10;99.90;;;;;;4882564;29;20211;-82
2023/09/03 09:41:21;;;;;;;3.78;2.70;;;27.00;99.90;;;;;;4779264;30;20259;-83
2023/09/03 09:45:23;;;;;;;4.18;2.67;;;27.20;99.90;;;;;;4653433;30;20225;-83
2023/09/03 09:48:13;;;;;;;4.93;2.90;;;27.00;99.90;;;;;;4659069;30;20299;-83
2023/09/03 09:51:17;;;;;;;5.63;3.25;;;27.20;99.90;;;;;;4658909;30;20345;-85
2023/09/03 09:54:03;;;;;;;4.13;3.10;;;27.40;99.90;;;;;;4658961;30;20224;-84
2023/09/03 09:56:51;;;;;;;4.10;3.10;;;27.50;99.90;;;;;;4661209;30;20240;-80
2023/09/03 09:59:39;;;;;;;4.45;3.28;;;27.70;99.90;;;;;;4661616;30;20208;-82
2023/09/03 10:02:53;;;;;;;4.60;3.00;;;28.00;99.90;;;;;;4649485;30;20215;-84
2023/09/03 10:05:38;;;;;;;4.70;2.60;;;27.80;99.90;;;;;;4616821;30;20739;-82
2023/09/03 10:08:34;;;;;;;3.13;2.30;;;27.50;99.90;;;;;;4661706;30;20226;-83
2023/09/03 10:11:19;;;;;;;3.35;1.90;;;27.50;99.90;;;;;;4679413;30;20358;-81
2023/09/03 10:14:13;;;;;;;2.28;1.83;;;27.60;99.90;;;;;;4736434;30;20244;-83
2023/09/03 10:16:48;;;;;;;3.15;1.90;;;26.90;99.90;;;;;;4783606;29;20227;-82
2023/09/03 10:19:26;;;;;;;2.83;2.05;;;26.80;99.90;;;;;;4806458;29;20280;-83
2023/09/03 10:22:09;;;;;;;2.88;2.13;;;27.10;99.90;;;;;;4917047;29;20645;-82
2023/09/03 10:24:41;;;;;;;3.50;2.42;;;27.40;99.90;;;;;;4917840;29;20203;-82
2023/09/03 10:27:14;;;;;;;4.20;3.20;;;27.10;99.90;;;;;;4933149;29;20671;-81
2023/09/03 10:29:46;;;;;;;5.05;3.33;;;26.80;99.90;;;;;;4933108;29;20191;-81
2023/09/03 10:32:15;;;;;;;5.65;3.28;;;26.20;99.90;;;;;;4932812;29;20627;-80
2023/09/03 10:34:56;;;;;;;4.47;3.15;;;25.80;99.90;;;;;;4916710;29;20682;-82
2023/09/03 10:37:37;;;;;;;4.90;3.22;;;25.60;99.90;;;;;;4918708;29;20207;-81
2023/09/03 10:40:22;;;;;;;4.25;2.85;;;25.80;99.90;;;;;;4918447;29;20196;-82
2023/09/03 10:42:53;;;;;;;3.92;2.92;;;25.80;99.90;;;;;;4917098;29;20208;-81
2023/09/03 10:45:36;;;;;;;6.47;2.90;;;26.30;99.90;;;;;;4933016;29;20203;-80
2023/09/03 10:48:21;;;;;;;3.20;2.78;;;26.70;99.90;;;;;;4917344;29;20195;-81
2023/09/03 10:51:04;;;;;;;4.30;2.78;;;27.10;99.90;;;;;;4932006;29;20224;-82
2023/09/03 10:53:40;;;;;;;3.67;2.72;;;27.70;99.90;;;;;;4918127;29;20231;-82
2023/09/03 10:56:19;;;;;;;3.20;2.30;;;28.00;99.90;;;;;;4916545;29;20765;-82
2023/09/03 10:59:04;;;;;;;4.15;2.72;;;28.40;99.90;;;;;;4918164;29;20206;-81
2023/09/03 11:01:39;;;;;;;3.15;2.40;;;28.00;99.90;;;;;;4917497;29;20724;-82
2023/09/03 11:04:23;;;;;;;3.88;2.55;;;27.50;99.90;;;;;;4918443;29;20227;-82
2023/09/03 11:07:22;;;;;;;4.63;2.88;;;27.00;99.90;;;;;;4917926;29;20687;-81
2023/09/03 11:09:51;;;;;;;3.67;2.65;;;26.50;99.90;;;;;;4918842;29;20195;-81
2023/09/03 11:12:25;;;;;;;5.22;2.83;;;26.00;99.90;;;;;;4916944;29;20227;-80
2023/09/03 11:14:56;;;;;;;3.72;3.05;;;25.40;99.90;;;;;;4918486;29;20278;-80
2023/09/03 11:17:27;;;;;;;3.22;2.58;;;25.10;99.90;;;;;;4930999;29;20222;-80
2023/09/03 11:19:58;;;;;;;4.95;2.50;;;24.70;99.90;;;;;;4936682;29;20666;-79
2023/09/03 11:22:37;;;;;;;4.28;2.90;;;25.00;99.90;;;;;;4935402;29;20282;-79
2023/09/03 11:25:08;;;;;;;3.30;2.40;;;25.10;99.90;;;;;;4936354;29;20270;-81
2023/09/03 11:28:12;;;;;;;3.83;3.05;;;25.60;99.90;;;;;;4936507;29;20202;-81
2023/09/03 11:30:58;;;;;;;4.18;2.30;;;26.20;99.90;;;;;;4935506;29;20191;-81
2023/09/03 11:33:32;;;;;;;2.58;2.22;;;26.30;99.90;;;;;;4936494;29;20191;-80
2023/09/03 11:36:03;;;;;;;3.25;2.40;;;27.10;99.90;;;;;;4936858;29;20277;-81
2023/09/03 11:38:37;;;;;;;2.92;2.10;;;28.20;99.90;;;;;;4936524;29;20183;-82
2023/09/03 11:41:06;;;;;;;2.92;2.03;;;29.20;99.90;;;;;;4919780;29;20262;-81
2023/09/03 11:43:42;;;;;;;3.35;2.10;;;29.90;99.90;;;;;;4920572;29;20187;-80
2023/09/03 11:46:13;;;;;;;3.75;2.03;;;30.50;99.90;;;;;;4936366;29;20270;-81
2023/09/03 11:48:51;;;;;;;2.75;2.20;;;30.90;99.90;;;;;;4935292;29;20283;-81
2023/09/03 11:51:33;;;;;;;3.85;2.10;;;30.60;99.90;;;;;;4935664;29;20246;-82
2023/09/03 11:54:24;;;;;;;2.60;2.00;;;30.50;99.90;;;;;;4918828;29;20195;-82
2023/09/03 11:57:02;;;;;;;4.00;2.00;;;30.00;99.90;;;;;;4920043;29;20195;-81
2023/09/03 11:59:29;;;;;;;2.75;1.80;;;29.30;99.90;;;;;;4919292;29;20199;-80
2023/09/03 12:02:07;;;;;;;2.75;1.70;;;28.40;99.90;;;;;;4935311;29;20206;-80
2023/09/03 12:04:38;;;;;;;3.80;1.90;;;27.50;99.90;;;;;;4936397;29;20562;-80
2023/09/03 12:07:20;;;;;;;2.78;1.80;;;27.60;99.90;;;;;;4936593;29;20219;-80
2023/09/03 12:09:50;;;;;;;2.33;1.73;;;27.20;99.90;;;;;;4935441;29;20193;-80
2023/09/03 12:12:19;;;;;;;2.38;1.70;;;26.80;99.90;;;;;;4935655;29;20297;-81
2023/09/03 12:14:48;;;;;;;2.30;1.58;;;26.30;99.90;;;;;;4919149;29;20279;-81
2023/09/03 12:17:27;;;;;;;1.98;1.45;;;27.00;99.90;;;;;;4935611;29;20226;-81
2023/09/03 12:19:58;;;;;;;2.38;1.60;;;28.00;99.90;;;;;;4935731;29;20597;-81
2023/09/03 12:22:32;;;;;;;1.92;1.40;;;28.90;97.90;;;;;;4935922;29;20277;-82
2023/09/03 12:25:06;;;;;;;2.40;1.73;;;29.60;98.90;;;;;;4935493;29;20225;-78
2023/09/03 12:27:49;;;;;;;3.10;1.83;;;29.50;97.40;;;;;;4935985;29;20187;-82
2023/09/03 12:30:21;;;;;;;2.42;1.60;;;29.10;98.20;;;;;;4935700;29;20207;-80
2023/09/03 12:33:17;;;;;;;2.90;1.80;;;28.10;99.40;;;;;;4935134;29;20222;-77
2023/09/03 12:36:24;;;;;;;4.68;2.00;;;27.60;98.70;;;;;;4919061;29;20549;-77
2023/09/03 12:38:59;;;;;;;2.42;1.85;;;27.60;99.50;;;;;;4932193;29;20206;-78
2023/09/03 12:41:35;;;;;;;2.60;1.83;;;28.00;99.90;;;;;;4932003;29;20297;-81
2023/09/03 12:44:07;;;;;;;3.13;2.30;;;28.80;98.20;;;;;;4917310;29;20198;-77
2023/09/03 12:46:38;;;;;;;2.88;1.90;;;29.00;97.70;;;;;;4931210;29;20213;-78
2023/09/03 12:49:06;;;;;;;2.92;1.90;;;29.20;96.10;;;;;;4932546;29;20234;-78
2023/09/03 12:51:34;;;;;;;2.20;1.73;;;29.70;95.90;;;;;;4931596;29;20229;-79
2023/09/03 12:54:04;;;;;;;4.07;2.00;;;30.10;96.70;;;;;;4931394;29;20293;-79
2023/09/03 12:56:35;;;;;;;2.70;1.88;;;30.30;94.60;;;;;;4932230;29;20203;-78
2023/09/03 12:59:20;;;;;;;2.85;2.00;;;30.70;94.90;;;;;;4929661;29;20202;-79
2023/09/03 13:01:51;;;;;;;3.60;1.90;;;30.70;94.70;;;;;;4932297;29;20710;-77
2023/09/03 13:04:30;;;;;;;2.70;2.00;;;30.20;95.10;;;;;;4931695;29;20230;-79
2023/09/03 13:07:00;;;;;;;3.30;2.00;;;29.90;94.90;;;;;;4931220;29;20237;-81
2023/09/03 13:09:30;;;;;;;2.80;2.00;;;29.60;94.50;;;;;;4931945;29;20243;-79
2023/09/03 13:12:02;;;;;;;2.65;1.98;;;29.40;94.90;;;;;;4931338;29;20214;-80
2023/09/03 13:14:34;;;;;;;2.00;1.60;;;29.10;95.60;;;;;;4934228;29;20203;-79
2023/09/03 13:17:08;;;;;;;1.67;1.52;;;28.50;95.40;;;;;;4933688;29;20239;-79
2023/09/03 13:19:53;;;;;;;2.00;1.70;;;27.80;94.30;;;;;;4933298;29;20195;-79
2023/09/03 13:22:23;;;;;;;2.08;1.80;;;27.30;94.00;;;;;;4934572;29;20210;-79
2023/09/03 13:24:51;;;;;;;3.42;2.03;;;27.00;95.10;;;;;;4932131;29;20542;-79
2023/09/03 13:27:28;;;;;;;2.03;1.63;;;27.00;95.60;;;;;;4933159;29;20195;-75
2023/09/03 13:30:02;;;;;;;2.78;1.80;;;27.00;96.10;;;;;;4933336;29;20305;-87
2023/09/03 13:33:01;;;;;;;2.22;1.70;;;26.90;96.30;;;;;;4933700;29;20333;-87
2023/09/03 13:35:36;;;;;;;3.28;1.92;;;26.80;96.90;;;;;;4934036;29;20306;-77
2023/09/03 13:38:09;;;;;;;4.72;2.10;;;26.90;98.20;;;;;;4933106;29;20233;-87
2023/09/03 13:40:43;;;;;;;3.30;1.70;;;26.60;97.40;;;;;;4917348;29;20206;-79
2023/09/03 13:43:19;;;;;;;2.53;1.80;;;26.30;94.60;;;;;;4932107;29;20206;-81
2023/09/03 13:45:54;;;;;;;2.58;1.98;;;26.10;95.20;;;;;;4933919;29;20191;-78
2023/09/03 13:48:25;;;;;;;3.13;2.05;;;25.80;95.50;;;;;;4932227;29;20195;-82
2023/09/03 13:51:17;;;;;;;2.60;2.05;;;25.80;96.60;;;;;;4917077;29;20230;-78
2023/09/03 13:53:56;;;;;;;2.10;1.80;;;25.90;97.20;;;;;;4932760;29;20654;-79
2023/09/03 13:56:29;;;;;;;2.28;2.00;;;26.00;97.40;;;;;;4934633;29;20269;-79
2023/09/03 13:58:57;;;;;;;3.33;2.08;;;25.90;96.40;;;;;;4933289;29;20198;-78
2023/09/03 14:01:32;;;;;;;2.95;1.90;;;25.70;96.50;;;;;;4931353;29;20203;-79
2023/09/03 14:04:03;;;;;;;2.47;1.65;;;25.30;96.70;;;;;;4933390;29;20715;-81
2023/09/03 14:06:34;;;;;;;2.28;1.60;;;24.90;95.50;;;;;;4933335;29;20310;-80
2023/09/03 14:09:05;;;;;;;2.28;1.77;;;24.70;95.90;;;;;;4933865;29;20199;-80
2023/09/03 14:11:38;;;;;;;2.40;1.90;;;24.70;97.30;;;;;;4934117;29;20195;-79
2023/09/03 14:14:06;;;;;;;2.85;1.88;;;24.80;97.20;;;;;;4934624;29;20194;-79
2023/09/03 14:16:41;;;;;;;3.03;1.90;;;24.70;97.20;;;;;;4917845;29;20238;-80
2023/09/03 14:19:13;;;;;;;4.05;1.70;;;24.60;97.50;;;;;;4934265;29;20555;-78
2023/09/03 14:21:47;;;;;;;2.47;1.80;;;24.50;97.50;;;;;;4932769;29;20341;-80
2023/09/03 14:24:14;;;;;;;2.05;1.75;;;24.50;98.10;;;;;;4932936;29;20195;-81
2023/09/03 14:26:50;;;;;;;2.58;1.80;;;24.50;96.90;;;;;;4933735;29;20427;-81
2023/09/03 14:29:18;;;;;;;2.20;1.80;;;24.30;96.90;;;;;;4932957;29;20191;-80
2023/09/03 14:31:52;;;;;;;3.45;1.73;;;24.30;97.60;;;;;;4934169;29;20332;-80
2023/09/03 14:34:22;;;;;;;2.30;1.77;;;24.20;97.20;;;;;;4934234;29;20203;-80
2023/09/03 14:36:52;;;;;;;2.83;1.80;;;24.20;97.20;;;;;;4932213;29;20358;-80
2023/09/03 14:39:23;;;;;;;2.15;1.77;;;24.20;97.40;;;;;;4933068;29;20210;-82
2023/09/03 14:41:58;;;;;;;2.60;1.52;;;24.20;97.20;;;;;;4918140;29;20190;-80
2023/09/03 14:44:28;;;;;;;3.13;1.80;;;24.10;97.00;;;;;;4932736;29;20239;-81
2023/09/03 14:46:56;;;;;;;4.22;2.10;;;24.20;96.70;;;;;;4933954;29;20241;-78
2023/09/03 14:49:38;;;;;;;3.20;2.03;;;24.10;96.10;;;;;;4932653;29;20198;-79
2023/09/03 14:52:13;;;;;;;3.00;2.08;;;24.20;97.20;;;;;;4933636;29;20309;-80
2023/09/03 14:54:41;;;;;;;2.95;2.22;;;24.30;97.10;;;;;;4933916;29;20610;-79
2023/09/03 14:57:11;;;;;;;2.88;1.92;;;24.40;96.00;;;;;;4933922;29;20277;-79
2023/09/03 14:59:44;;;;;;;4.00;2.03;;;24.40;95.90;;;;;;4937440;29;20187;-80
2023/09/03 15:02:12;;;;;;;2.47;1.80;;;24.40;95.90;;;;;;4935895;29;20234;-79
2023/09/03 15:04:58;;;;;;;3.03;1.77;;;24.10;93.30;;;;;;4921519;29;20187;-81